sensor_id;sensor_type;location;lat;lon;timestamp;pressure;altitude;pressure_sealevel;temperature;humidity
50364;BME280;36272;59.400;17.982;2023-09-08T00:03:09;102096.53;;;17.27;83.45
50364;BME280;36272;59.400;17.982;2023-09-08T00:08:10;102087.50;;;17.21;83.81
50364;BME280;36272;59.400;17.982;2023-09-08T00:13:12;102092.31;;;17.19;83.88
50364;BME280;36272;59.400;17.982;2023-09-08T00:18:13;102094.41;;;17.17;84.00
50364;BME280;36272;59.400;17.982;2023-09-08T00:23:15;102083.25;;;17.14;84.07
50364;BME280;36272;59.400;17.982;2023-09-08T00:28:17;102080.19;;;17.10;84.41
50364;BME280;36272;59.400;17.982;2023-09-08T00:33:18;102085.25;;;17.06;84.62
50364;BME280;36272;59.400;17.982;2023-09-08T00:38:20;102082.16;;;17.03;84.97
50364;BME280;36272;59.400;17.982;2023-09-08T00:43:22;102088.41;;;17.03;85.05
50364;BME280;36272;59.400;17.982;2023-09-08T00:48:23;102085.94;;;17.02;85.10
50364;BME280;36272;59.400;17.982;2023-09-08T00:53:31;102065.59;;;16.99;85.65
50364;BME280;36272;59.400;17.982;2023-09-08T00:58:32;102083.72;;;16.99;85.47
50364;BME280;36272;59.400;17.982;2023-09-08T01:03:34;102076.41;;;16.99;86.20
50364;BME280;36272;59.400;17.982;2023-09-08T01:08:36;102054.00;;;16.99;86.23
50364;BME280;36272;59.400;17.982;2023-09-08T01:13:43;102052.34;;;16.98;86.59
50364;BME280;36272;59.400;17.982;2023-09-08T01:18:46;102053.75;;;17.00;86.90
50364;BME280;36272;59.400;17.982;2023-09-08T01:28:59;102050.78;;;17.02;87.15
50364;BME280;36272;59.400;17.982;2023-09-08T01:34:04;102055.13;;;17.03;87.21
50364;BME280;36272;59.400;17.982;2023-09-08T01:39:08;102070.88;;;17.06;87.18
50364;BME280;36272;59.400;17.982;2023-09-08T01:44:09;102064.69;;;17.05;87.58
50364;BME280;36272;59.400;17.982;2023-09-08T01:49:13;102060.66;;;17.08;87.79
50364;BME280;36272;59.400;17.982;2023-09-08T01:54:14;102058.56;;;17.10;87.86
50364;BME280;36272;59.400;17.982;2023-09-08T01:59:16;102061.84;;;17.12;88.21
50364;BME280;36272;59.400;17.982;2023-09-08T02:04:18;102059.75;;;17.14;87.96
50364;BME280;36272;59.400;17.982;2023-09-08T02:09:19;102047.88;;;17.15;88.32
50364;BME280;36272;59.400;17.982;2023-09-08T02:14:26;102032.50;;;17.16;88.75
50364;BME280;36272;59.400;17.982;2023-09-08T02:19:29;102046.34;;;17.19;88.65
50364;BME280;36272;59.400;17.982;2023-09-08T02:24:31;102047.78;;;17.22;88.39
50364;BME280;36272;59.400;17.982;2023-09-08T02:29:35;102015.34;;;17.22;88.71
50364;BME280;36272;59.400;17.982;2023-09-08T02:34:37;102031.31;;;17.23;88.32
50364;BME280;36272;59.400;17.982;2023-09-08T02:39:39;102027.22;;;17.21;88.61
50364;BME280;36272;59.400;17.982;2023-09-08T02:44:40;102021.81;;;17.21;88.60
50364;BME280;36272;59.400;17.982;2023-09-08T02:49:43;102021.22;;;17.19;88.50
50364;BME280;36272;59.400;17.982;2023-09-08T02:54:45;102010.63;;;17.17;88.68
50364;BME280;36272;59.400;17.982;2023-09-08T02:59:50;102001.13;;;17.15;89.33
50364;BME280;36272;59.400;17.982;2023-09-08T03:04:52;102011.09;;;17.14;89.28
50364;BME280;36272;59.400;17.982;2023-09-08T03:09:54;102019.19;;;17.14;89.21
50364;BME280;36272;59.400;17.982;2023-09-08T03:15:02;101996.97;;;17.12;89.47
50364;BME280;36272;59.400;17.982;2023-09-08T03:20:03;102009.44;;;17.13;89.55
50364;BME280;36272;59.400;17.982;2023-09-08T03:25:08;102006.75;;;17.13;89.49
50364;BME280;36272;59.400;17.982;2023-09-08T03:30:10;102005.56;;;17.09;89.83
50364;BME280;36272;59.400;17.982;2023-09-08T03:35:22;101989.34;;;17.09;89.99
50364;BME280;36272;59.400;17.982;2023-09-08T03:40:24;102003.91;;;17.08;89.86
50364;BME280;36272;59.400;17.982;2023-09-08T03:45:27;102012.03;;;17.08;90.07
50364;BME280;36272;59.400;17.982;2023-09-08T03:50:29;101990.41;;;17.08;90.34
50364;BME280;36272;59.400;17.982;2023-09-08T03:55:31;102004.75;;;17.08;90.45
50364;BME280;36272;59.400;17.982;2023-09-08T04:00:32;102004.97;;;17.07;90.39
50364;BME280;36272;59.400;17.982;2023-09-08T04:05:34;102021.78;;;17.09;90.39
50364;BME280;36272;59.400;17.982;2023-09-08T04:10:36;102012.63;;;17.10;90.48
50364;BME280;36272;59.400;17.982;2023-09-08T04:15:37;102022.63;;;17.09;90.42
50364;BME280;36272;59.400;17.982;2023-09-08T04:20:39;102015.31;;;17.10;90.51
50364;BME280;36272;59.400;17.982;2023-09-08T04:25:41;102021.09;;;17.14;90.77
50364;BME280;36272;59.400;17.982;2023-09-08T04:30:42;102033.31;;;17.16;90.74
50364;BME280;36272;59.400;17.982;2023-09-08T04:35:44;102030.72;;;17.21;90.85
50364;BME280;36272;59.400;17.982;2023-09-08T04:40:46;102025.44;;;17.27;90.96
50364;BME280;36272;59.400;17.982;2023-09-08T04:45:48;102023.44;;;17.34;91.19
50364;BME280;36272;59.400;17.982;2023-09-08T04:50:49;102024.38;;;17.39;91.23
50364;BME280;36272;59.400;17.982;2023-09-08T04:55:52;102025.06;;;17.47;91.30
50364;BME280;36272;59.400;17.982;2023-09-08T05:00:54;102016.59;;;17.55;91.28
50364;BME280;36272;59.400;17.982;2023-09-08T05:06:08;102007.53;;;17.61;91.17
50364;BME280;36272;59.400;17.982;2023-09-08T05:11:22;101995.50;;;17.69;90.94
50364;BME280;36272;59.400;17.982;2023-09-08T05:16:24;102029.00;;;17.80;90.67
50364;BME280;36272;59.400;17.982;2023-09-08T05:21:54;101991.81;;;17.87;90.56
50364;BME280;36272;59.400;17.982;2023-09-08T05:26:56;102018.03;;;17.98;90.33
50364;BME280;36272;59.400;17.982;2023-09-08T05:31:57;102017.41;;;18.08;90.34
50364;BME280;36272;59.400;17.982;2023-09-08T05:36:59;102019.75;;;18.17;90.04
50364;BME280;36272;59.400;17.982;2023-09-08T05:42:01;102015.22;;;18.22;90.25
50364;BME280;36272;59.400;17.982;2023-09-08T05:47:02;102012.72;;;18.33;90.01
50364;BME280;36272;59.400;17.982;2023-09-08T05:52:07;102015.03;;;18.41;89.86
50364;BME280;36272;59.400;17.982;2023-09-08T05:57:09;102014.41;;;18.51;89.33
50364;BME280;36272;59.400;17.982;2023-09-08T06:02:10;102010.72;;;18.57;89.39
50364;BME280;36272;59.400;17.982;2023-09-08T06:07:12;102014.66;;;18.66;89.09
50364;BME280;36272;59.400;17.982;2023-09-08T06:12:14;102013.19;;;18.76;88.93
50364;BME280;36272;59.400;17.982;2023-09-08T06:17:15;102020.09;;;18.83;88.68
50364;BME280;36272;59.400;17.982;2023-09-08T06:22:19;102019.69;;;18.92;88.46
50364;BME280;36272;59.400;17.982;2023-09-08T06:27:21;102011.97;;;19.00;88.10
50364;BME280;36272;59.400;17.982;2023-09-08T06:32:23;102014.09;;;19.15;87.60
50364;BME280;36272;59.400;17.982;2023-09-08T06:37:24;102006.84;;;19.21;87.10
50364;BME280;36272;59.400;17.982;2023-09-08T06:42:26;102020.31;;;19.33;86.72
50364;BME280;36272;59.400;17.982;2023-09-08T06:47:28;102018.50;;;19.39;86.37
50364;BME280;36272;59.400;17.982;2023-09-08T06:52:30;102009.59;;;19.43;85.85
50364;BME280;36272;59.400;17.982;2023-09-08T06:57:31;102010.00;;;19.52;85.40
50364;BME280;36272;59.400;17.982;2023-09-08T07:02:33;102009.56;;;19.60;85.00
50364;BME280;36272;59.400;17.982;2023-09-08T07:07:35;101999.16;;;19.74;84.46
50364;BME280;36272;59.400;17.982;2023-09-08T07:12:37;102007.16;;;19.86;84.00
50364;BME280;36272;59.400;17.982;2023-09-08T07:17:38;102013.47;;;19.92;83.93
50364;BME280;36272;59.400;17.982;2023-09-08T07:22:40;102023.81;;;19.95;83.73
50364;BME280;36272;59.400;17.982;2023-09-08T07:27:41;102025.75;;;19.95;83.47
50364;BME280;36272;59.400;17.982;2023-09-08T07:32:43;102010.00;;;19.97;83.52
50364;BME280;36272;59.400;17.982;2023-09-08T07:37:45;101997.66;;;20.11;83.33
50364;BME280;36272;59.400;17.982;2023-09-08T07:42:50;101998.59;;;20.22;82.74
50364;BME280;36272;59.400;17.982;2023-09-08T07:47:59;101994.38;;;20.36;82.35
50364;BME280;36272;59.400;17.982;2023-09-08T07:53:21;102015.97;;;20.48;81.98
50364;BME280;36272;59.400;17.982;2023-09-08T07:58:23;102024.13;;;20.48;81.52
50364;BME280;36272;59.400;17.982;2023-09-08T08:03:50;102025.78;;;20.55;81.53
50364;BME280;36272;59.400;17.982;2023-09-08T08:08:58;102034.59;;;20.67;81.18
50364;BME280;36272;59.400;17.982;2023-09-08T08:13:59;102039.56;;;20.75;81.10
50364;BME280;36272;59.400;17.982;2023-09-08T08:19:02;102033.13;;;20.82;80.40
50364;BME280;36272;59.400;17.982;2023-09-08T08:24:05;102024.44;;;20.85;80.02
50364;BME280;36272;59.400;17.982;2023-09-08T08:29:09;102023.41;;;20.91;79.95
50364;BME280;36272;59.400;17.982;2023-09-08T08:34:11;102019.91;;;20.95;80.07
50364;BME280;36272;59.400;17.982;2023-09-08T08:39:21;101994.09;;;21.03;79.40
50364;BME280;36272;59.400;17.982;2023-09-08T08:44:23;102013.78;;;21.16;79.37
50364;BME280;36272;59.400;17.982;2023-09-08T08:49:26;102000.50;;;21.24;78.77
50364;BME280;36272;59.400;17.982;2023-09-08T08:54:28;102013.34;;;21.34;78.40
50364;BME280;36272;59.400;17.982;2023-09-08T08:59:31;101995.41;;;21.44;78.36
50364;BME280;36272;59.400;17.982;2023-09-08T09:04:33;102001.22;;;21.58;78.34
50364;BME280;36272;59.400;17.982;2023-09-08T09:09:37;102010.28;;;21.74;77.52
50364;BME280;36272;59.400;17.982;2023-09-08T09:14:47;101994.53;;;21.91;76.83
50364;BME280;36272;59.400;17.982;2023-09-08T09:19:49;102003.56;;;22.12;76.38
50364;BME280;36272;59.400;17.982;2023-09-08T09:24:50;101986.44;;;22.33;75.86
50364;BME280;36272;59.400;17.982;2023-09-08T09:29:52;101989.22;;;22.53;75.13
50364;BME280;36272;59.400;17.982;2023-09-08T09:34:54;101979.66;;;22.66;74.54
50364;BME280;36272;59.400;17.982;2023-09-08T09:39:55;101982.09;;;22.83;74.37
50364;BME280;36272;59.400;17.982;2023-09-08T09:45:17;101968.69;;;23.02;73.33
50364;BME280;36272;59.400;17.982;2023-09-08T09:50:32;101961.25;;;23.18;72.80
50364;BME280;36272;59.400;17.982;2023-09-08T10:01:14;101966.41;;;23.41;71.24
50364;BME280;36272;59.400;17.982;2023-09-08T10:06:22;101963.94;;;23.44;70.81
50364;BME280;36272;59.400;17.982;2023-09-08T10:11:28;101961.16;;;23.60;70.55
50364;BME280;36272;59.400;17.982;2023-09-08T10:16:34;101955.56;;;23.81;69.84
50364;BME280;36272;59.400;17.982;2023-09-08T10:21:40;101958.16;;;24.06;69.44
50364;BME280;36272;59.400;17.982;2023-09-08T10:26:44;101960.16;;;24.30;68.74
50364;BME280;36272;59.400;17.982;2023-09-08T10:31:48;101951.38;;;24.68;69.12
50364;BME280;36272;59.400;17.982;2023-09-08T10:37:25;101957.31;;;24.75;67.75
50364;BME280;36272;59.400;17.982;2023-09-08T10:48:43;101970.84;;;25.39;66.06
50364;BME280;36272;59.400;17.982;2023-09-08T10:53:48;101957.09;;;25.69;65.08
50364;BME280;36272;59.400;17.982;2023-09-08T10:58:51;101968.41;;;26.01;64.39
50364;BME280;36272;59.400;17.982;2023-09-08T11:03:53;101967.34;;;26.35;63.99
50364;BME280;36272;59.400;17.982;2023-09-08T11:08:55;101966.53;;;26.67;62.82
50364;BME280;36272;59.400;17.982;2023-09-08T11:13:57;101976.84;;;27.17;62.16
50364;BME280;36272;59.400;17.982;2023-09-08T11:18:59;101975.25;;;28.18;60.57
50364;BME280;36272;59.400;17.982;2023-09-08T11:24:08;101952.66;;;29.51;58.00
50364;BME280;36272;59.400;17.982;2023-09-08T11:29:11;101970.16;;;30.43;55.98
50364;BME280;36272;59.400;17.982;2023-09-08T11:34:13;101955.56;;;30.90;54.83
50364;BME280;36272;59.400;17.982;2023-09-08T11:39:37;101938.00;;;31.46;53.95
50364;BME280;36272;59.400;17.982;2023-09-08T11:44:51;101933.25;;;32.10;52.58
50364;BME280;36272;59.400;17.982;2023-09-08T11:50:15;101929.69;;;32.93;51.61
50364;BME280;36272;59.400;17.982;2023-09-08T12:02:07;101940.91;;;33.78;49.19
50364;BME280;36272;59.400;17.982;2023-09-08T12:08:19;101928.59;;;34.20;48.65
50364;BME280;36272;59.400;17.982;2023-09-08T12:13:28;101933.72;;;34.66;47.79
50364;BME280;36272;59.400;17.982;2023-09-08T12:18:40;101905.97;;;35.38;47.18
50364;BME280;36272;59.400;17.982;2023-09-08T12:23:48;101915.06;;;36.17;46.06
50364;BME280;36272;59.400;17.982;2023-09-08T12:28:53;101931.22;;;36.31;45.51
50364;BME280;36272;59.400;17.982;2023-09-08T12:33:55;101930.38;;;36.07;45.91
50364;BME280;36272;59.400;17.982;2023-09-08T12:38:56;101929.59;;;36.07;45.67
50364;BME280;36272;59.400;17.982;2023-09-08T12:43:58;101923.00;;;36.15;46.06
50364;BME280;36272;59.400;17.982;2023-09-08T12:49:03;101901.69;;;36.03;45.64
50364;BME280;36272;59.400;17.982;2023-09-08T12:54:09;101899.13;;;35.94;45.35
50364;BME280;36272;59.400;17.982;2023-09-08T12:59:11;101919.53;;;36.22;44.99
50364;BME280;36272;59.400;17.982;2023-09-08T13:04:12;101912.94;;;36.57;44.77
50364;BME280;36272;59.400;17.982;2023-09-08T13:09:14;101902.03;;;36.71;44.40
50364;BME280;36272;59.400;17.982;2023-09-08T13:14:16;101894.97;;;36.78;44.63
50364;BME280;36272;59.400;17.982;2023-09-08T13:19:20;101886.97;;;36.76;44.16
50364;BME280;36272;59.400;17.982;2023-09-08T13:24:22;101910.19;;;36.84;44.37
50364;BME280;36272;59.400;17.982;2023-09-08T13:29:24;101902.31;;;36.93;43.46
50364;BME280;36272;59.400;17.982;2023-09-08T13:34:25;101891.84;;;36.83;43.75
50364;BME280;36272;59.400;17.982;2023-09-08T13:39:27;101892.25;;;36.54;44.02
50364;BME280;36272;59.400;17.982;2023-09-08T13:50:19;101888.63;;;35.44;44.87
50364;BME280;36272;59.400;17.982;2023-09-08T13:55:21;101885.13;;;34.92;45.66
50364;BME280;36272;59.400;17.982;2023-09-08T14:00:25;101865.38;;;34.78;47.23
50364;BME280;36272;59.400;17.982;2023-09-08T14:05:26;101890.50;;;34.65;46.68
50364;BME280;36272;59.400;17.982;2023-09-08T14:10:36;101886.97;;;34.36;46.70
50364;BME280;36272;59.400;17.982;2023-09-08T14:15:38;101882.59;;;34.19;46.54
50364;BME280;36272;59.400;17.982;2023-09-08T14:20:41;101880.00;;;34.10;46.52
50364;BME280;36272;59.400;17.982;2023-09-08T14:25:42;101885.41;;;33.91;46.66
50364;BME280;36272;59.400;17.982;2023-09-08T14:30:44;101881.97;;;33.81;46.32
50364;BME280;36272;59.400;17.982;2023-09-08T14:35:46;101880.94;;;33.58;46.87
50364;BME280;36272;59.400;17.982;2023-09-08T14:41:05;101859.78;;;32.84;47.29
50364;BME280;36272;59.400;17.982;2023-09-08T14:46:07;101875.19;;;31.77;49.01
50364;BME280;36272;59.400;17.982;2023-09-08T14:51:09;101873.91;;;31.10;50.08
50364;BME280;36272;59.400;17.982;2023-09-08T14:56:10;101870.91;;;30.64;50.88
50364;BME280;36272;59.400;17.982;2023-09-08T15:01:12;101863.56;;;30.38;52.07
50364;BME280;36272;59.400;17.982;2023-09-08T15:06:15;101869.94;;;30.21;51.86
50364;BME280;36272;59.400;17.982;2023-09-08T15:11:17;101866.06;;;30.22;52.62
50364;BME280;36272;59.400;17.982;2023-09-08T15:16:18;101871.56;;;30.22;52.29
50364;BME280;36272;59.400;17.982;2023-09-08T15:21:20;101869.81;;;30.09;52.55
50364;BME280;36272;59.400;17.982;2023-09-08T15:26:27;101866.44;;;29.42;53.92
50364;BME280;36272;59.400;17.982;2023-09-08T15:31:29;101861.91;;;28.70;55.68
50364;BME280;36272;59.400;17.982;2023-09-08T15:36:30;101872.19;;;28.15;56.65
50364;BME280;36272;59.400;17.982;2023-09-08T15:41:37;101857.03;;;27.72;57.64
50364;BME280;36272;59.400;17.982;2023-09-08T15:46:38;101857.69;;;27.41;58.19
50364;BME280;36272;59.400;17.982;2023-09-08T15:51:40;101861.47;;;27.09;59.32
50364;BME280;36272;59.400;17.982;2023-09-08T15:56:42;101846.94;;;26.80;60.08
50364;BME280;36272;59.400;17.982;2023-09-08T16:01:43;101849.66;;;26.52;60.67
50364;BME280;36272;59.400;17.982;2023-09-08T16:06:45;101847.09;;;26.28;61.55
50364;BME280;36272;59.400;17.982;2023-09-08T16:11:46;101828.34;;;26.02;61.96
50364;BME280;36272;59.400;17.982;2023-09-08T16:16:48;101836.63;;;25.83;62.88
50364;BME280;36272;59.400;17.982;2023-09-08T16:21:50;101832.72;;;25.70;63.42
50364;BME280;36272;59.400;17.982;2023-09-08T16:26:52;101825.09;;;25.67;63.73
50364;BME280;36272;59.400;17.982;2023-09-08T16:31:54;101827.59;;;25.63;64.16
50364;BME280;36272;59.400;17.982;2023-09-08T16:36:55;101820.16;;;25.50;64.35
50364;BME280;36272;59.400;17.982;2023-09-08T16:41:57;101830.50;;;25.34;64.88
50364;BME280;36272;59.400;17.982;2023-09-08T16:46:59;101844.47;;;25.13;65.59
50364;BME280;36272;59.400;17.982;2023-09-08T16:52:00;101846.28;;;24.99;65.98
50364;BME280;36272;59.400;17.982;2023-09-08T16:57:02;101827.94;;;24.80;66.48
50364;BME280;36272;59.400;17.982;2023-09-08T17:02:04;101836.78;;;24.72;66.96
50364;BME280;36272;59.400;17.982;2023-09-08T17:07:05;101832.72;;;24.64;67.38
50364;BME280;36272;59.400;17.982;2023-09-08T17:12:07;101833.94;;;24.53;67.82
50364;BME280;36272;59.400;17.982;2023-09-08T17:17:10;101836.84;;;24.37;68.62
50364;BME280;36272;59.400;17.982;2023-09-08T17:22:11;101826.91;;;24.17;69.03
50364;BME280;36272;59.400;17.982;2023-09-08T17:27:13;101827.94;;;23.91;69.48
50364;BME280;36272;59.400;17.982;2023-09-08T17:32:14;101824.59;;;23.65;70.31
50364;BME280;36272;59.400;17.982;2023-09-08T17:37:16;101825.28;;;23.46;71.09
50364;BME280;36272;59.400;17.982;2023-09-08T17:42:18;101811.72;;;23.31;71.47
50364;BME280;36272;59.400;17.982;2023-09-08T17:47:19;101810.97;;;23.15;71.97
50364;BME280;36272;59.400;17.982;2023-09-08T17:52:21;101821.69;;;22.96;72.44
50364;BME280;36272;59.400;17.982;2023-09-08T17:57:22;101831.56;;;22.81;73.13
50364;BME280;36272;59.400;17.982;2023-09-08T18:02:24;101841.16;;;22.63;73.68
50364;BME280;36272;59.400;17.982;2023-09-08T18:07:26;101835.50;;;22.49;74.12
50364;BME280;36272;59.400;17.982;2023-09-08T18:12:27;101843.66;;;22.34;74.84
50364;BME280;36272;59.400;17.982;2023-09-08T18:17:29;101832.50;;;22.20;75.08
50364;BME280;36272;59.400;17.982;2023-09-08T18:22:32;101844.50;;;22.08;75.51
50364;BME280;36272;59.400;17.982;2023-09-08T18:27:33;101850.22;;;21.96;75.98
50364;BME280;36272;59.400;17.982;2023-09-08T18:32:35;101829.81;;;21.83;76.33
50364;BME280;36272;59.400;17.982;2023-09-08T18:37:37;101841.50;;;21.74;76.71
50364;BME280;36272;59.400;17.982;2023-09-08T18:42:38;101836.84;;;21.64;77.04
50364;BME280;36272;59.400;17.982;2023-09-08T18:47:40;101833.28;;;21.58;77.40
50364;BME280;36272;59.400;17.982;2023-09-08T18:52:42;101839.53;;;21.53;77.38
50364;BME280;36272;59.400;17.982;2023-09-08T18:57:43;101847.94;;;21.47;77.58
50364;BME280;36272;59.400;17.982;2023-09-08T19:02:45;101845.22;;;21.42;78.12
50364;BME280;36272;59.400;17.982;2023-09-08T19:07:47;101847.41;;;21.34;78.25
50364;BME280;36272;59.400;17.982;2023-09-08T19:12:48;101855.53;;;21.29;78.62
50364;BME280;36272;59.400;17.982;2023-09-08T19:17:50;101830.47;;;21.22;78.56
50364;BME280;36272;59.400;17.982;2023-09-08T19:22:52;101858.75;;;21.16;78.85
50364;BME280;36272;59.400;17.982;2023-09-08T19:27:54;101851.09;;;21.07;79.04
50364;BME280;36272;59.400;17.982;2023-09-08T19:32:56;101844.53;;;21.03;79.32
50364;BME280;36272;59.400;17.982;2023-09-08T19:37:58;101830.69;;;21.00;79.41
50364;BME280;36272;59.400;17.982;2023-09-08T19:43:04;101820.59;;;20.95;79.67
50364;BME280;36272;59.400;17.982;2023-09-08T19:48:06;101827.38;;;20.92;79.75
50364;BME280;36272;59.400;17.982;2023-09-08T19:53:07;101830.91;;;20.88;79.78
50364;BME280;36272;59.400;17.982;2023-09-08T19:58:09;101830.88;;;20.83;79.69
50364;BME280;36272;59.400;17.982;2023-09-08T20:03:11;101840.06;;;20.76;80.58
50364;BME280;36272;59.400;17.982;2023-09-08T20:08:13;101831.63;;;20.73;80.80
50364;BME280;36272;59.400;17.982;2023-09-08T20:13:20;101803.59;;;20.67;81.20
50364;BME280;36272;59.400;17.982;2023-09-08T20:18:21;101815.81;;;20.64;81.08
50364;BME280;36272;59.400;17.982;2023-09-08T20:23:24;101803.56;;;20.62;81.39
50364;BME280;36272;59.400;17.982;2023-09-08T20:28:25;101818.75;;;20.58;81.71
50364;BME280;36272;59.400;17.982;2023-09-08T20:33:27;101815.75;;;20.54;82.24
50364;BME280;36272;59.400;17.982;2023-09-08T20:38:29;101808.69;;;20.53;82.29
50364;BME280;36272;59.400;17.982;2023-09-08T20:43:32;101796.44;;;20.50;82.40
50364;BME280;36272;59.400;17.982;2023-09-08T20:48:36;101801.88;;;20.50;82.32
50364;BME280;36272;59.400;17.982;2023-09-08T20:53:40;101802.13;;;20.49;82.45
50364;BME280;36272;59.400;17.982;2023-09-08T20:58:42;101821.44;;;20.47;82.55
50364;BME280;36272;59.400;17.982;2023-09-08T21:03:44;101820.31;;;20.43;82.95
50364;BME280;36272;59.400;17.982;2023-09-08T21:08:47;101812.94;;;20.39;82.78
50364;BME280;36272;59.400;17.982;2023-09-08T21:13:49;101824.03;;;20.32;83.08
50364;BME280;36272;59.400;17.982;2023-09-08T21:18:50;101836.50;;;20.28;82.89
50364;BME280;36272;59.400;17.982;2023-09-08T21:23:52;101838.63;;;20.20;83.06
50364;BME280;36272;59.400;17.982;2023-09-08T21:28:53;101848.06;;;20.13;82.84
50364;BME280;36272;59.400;17.982;2023-09-08T21:33:55;101837.13;;;20.02;82.99
50364;BME280;36272;59.400;17.982;2023-09-08T21:38:57;101830.22;;;19.89;83.42
50364;BME280;36272;59.400;17.982;2023-09-08T21:43:58;101827.66;;;19.77;83.79
50364;BME280;36272;59.400;17.982;2023-09-08T21:49:00;101820.22;;;19.68;84.11
50364;BME280;36272;59.400;17.982;2023-09-08T21:54:01;101817.72;;;19.61;84.68
50364;BME280;36272;59.400;17.982;2023-09-08T21:59:03;101817.94;;;19.54;84.52
50364;BME280;36272;59.400;17.982;2023-09-08T22:04:04;101806.47;;;19.47;84.61
50364;BME280;36272;59.400;17.982;2023-09-08T22:09:06;101810.19;;;19.41;85.31
50364;BME280;36272;59.400;17.982;2023-09-08T22:14:08;101808.78;;;19.33;85.43
50364;BME280;36272;59.400;17.982;2023-09-08T22:19:12;101789.97;;;19.26;85.97
50364;BME280;36272;59.400;17.982;2023-09-08T22:24:14;101774.59;;;19.32;83.69
50364;BME280;36272;59.400;17.982;2023-09-08T22:29:16;101802.38;;;19.17;85.34
50364;BME280;36272;59.400;17.982;2023-09-08T22:34:18;101807.16;;;19.10;86.02
50364;BME280;36272;59.400;17.982;2023-09-08T22:39:21;101810.38;;;19.07;86.22
50364;BME280;36272;59.400;17.982;2023-09-08T22:44:22;101804.63;;;19.03;85.98
50364;BME280;36272;59.400;17.982;2023-09-08T22:49:24;101808.66;;;19.00;86.18
50364;BME280;36272;59.400;17.982;2023-09-08T22:54:26;101819.41;;;18.95;86.39
50364;BME280;36272;59.400;17.982;2023-09-08T22:59:27;101817.22;;;18.92;86.38
50364;BME280;36272;59.400;17.982;2023-09-08T23:04:29;101813.84;;;18.85;86.56
50364;BME280;36272;59.400;17.982;2023-09-08T23:09:31;101825.69;;;18.79;86.62
50364;BME280;36272;59.400;17.982;2023-09-08T23:14:33;101820.25;;;18.73;86.64
50364;BME280;36272;59.400;17.982;2023-09-08T23:19:34;101826.09;;;18.65;86.67
50364;BME280;36272;59.400;17.982;2023-09-08T23:24:36;101821.66;;;18.59;86.96
50364;BME280;36272;59.400;17.982;2023-09-08T23:29:38;101811.00;;;18.52;87.09
50364;BME280;36272;59.400;17.982;2023-09-08T23:34:40;101817.41;;;18.46;86.91
50364;BME280;36272;59.400;17.982;2023-09-08T23:39:42;101818.41;;;18.40;87.16
50364;BME280;36272;59.400;17.982;2023-09-08T23:44:44;101822.38;;;18.32;87.24
50364;BME280;36272;59.400;17.982;2023-09-08T23:49:45;101823.34;;;18.26;87.41
50364;BME280;36272;59.400;17.982;2023-09-08T23:54:47;101818.91;;;18.20;87.90
50364;BME280;36272;59.400;17.982;2023-09-08T23:59:49;101826.97;;;18.15;87.98
